createdAt,value
2016-11-23T00:00:08.209Z,0
2016-11-23T00:01:07.937Z,0
2016-11-23T00:02:07.654Z,0
2016-11-23T00:03:08.275Z,0
2016-11-23T00:04:08.320Z,0
2016-11-23T00:05:08.360Z,0
2016-11-23T00:06:07.761Z,0
2016-11-23T00:07:08.102Z,0
2016-11-23T00:08:07.831Z,0
2016-11-23T00:09:07.560Z,0
2016-11-23T00:10:07.576Z,0
2016-11-23T00:11:08.218Z,0
2016-11-23T00:12:07.938Z,0
2016-11-23T00:13:07.964Z,0
2016-11-23T00:14:08.337Z,0
2016-11-23T00:15:08.319Z,0
2016-11-23T00:16:08.669Z,0
2016-11-23T00:17:08.381Z,0
2016-11-23T00:18:08.408Z,0
2016-11-23T00:19:08.747Z,0
2016-11-23T00:20:08.496Z,0
2016-11-23T00:21:08.501Z,0
2016-11-23T00:22:08.217Z,0
2016-11-23T00:23:08.855Z,0
2016-11-23T00:24:08.279Z,0
2016-11-23T00:25:08.604Z,0
2016-11-23T00:26:08.641Z,0
2016-11-23T00:27:08.962Z,0
2016-11-23T00:28:08.694Z,0
2016-11-23T00:29:08.119Z,0
2016-11-23T00:30:09.049Z,0
2016-11-23T00:31:08.785Z,0
2016-11-23T00:32:08.801Z,0
2016-11-23T00:33:08.539Z,0
2016-11-23T00:34:08.871Z,0
2016-11-23T00:35:08.888Z,0
2016-11-23T00:36:08.921Z,0
2016-11-23T00:37:08.641Z,0
2016-11-23T00:38:08.970Z,0
2016-11-23T00:39:08.703Z,0
2016-11-23T00:40:08.733Z,0
2016-11-23T00:41:09.060Z,0
2016-11-23T00:42:09.086Z,0
2016-11-23T00:43:08.522Z,0
2016-11-23T00:44:08.843Z,0
2016-11-23T00:45:08.575Z,0
2016-11-23T00:46:09.192Z,0
2016-11-23T00:47:09.225Z,0
2016-11-23T00:48:08.962Z,0
2016-11-23T00:49:09.610Z,0
2016-11-23T00:50:09.315Z,0
2016-11-23T00:51:09.332Z,0
2016-11-23T00:52:08.775Z,0
2016-11-23T00:53:09.109Z,0
2016-11-23T00:54:09.118Z,0
2016-11-23T00:55:09.149Z,0
2016-11-23T00:56:09.788Z,0
2016-11-23T00:57:09.517Z,0
2016-11-23T00:58:09.546Z,0
2016-11-23T00:59:09.571Z,0
2016-11-23T01:00:09.594Z,0
2016-11-23T01:01:09.315Z,0
2016-11-23T01:02:09.692Z,0
2016-11-23T01:03:09.378Z,0
2016-11-23T01:04:09.726Z,0
2016-11-23T01:05:09.759Z,0
2016-11-23T01:06:09.456Z,0
2016-11-23T01:07:09.792Z,0
2016-11-23T01:08:09.825Z,0
2016-11-23T01:09:09.877Z,0
2016-11-23T01:10:09.876Z,0
2016-11-23T01:11:09.906Z,0
2016-11-23T01:12:09.640Z,0
2016-11-23T01:13:10.277Z,0
2016-11-23T01:14:09.985Z,0
2016-11-23T01:15:10.024Z,0
2016-11-23T01:16:10.339Z,0
2016-11-23T01:17:10.387Z,0
2016-11-23T01:18:10.105Z,0
2016-11-23T01:19:10.441Z,0
2016-11-23T01:20:09.558Z,0
2016-11-23T01:21:10.191Z,0
2016-11-23T01:22:10.215Z,0
2016-11-23T01:23:09.937Z,0
2016-11-23T01:24:10.265Z,0
2016-11-23T01:25:10.317Z,0
2016-11-23T01:26:10.635Z,0
2016-11-23T01:27:10.663Z,0
2016-11-23T01:28:10.393Z,0
2016-11-23T01:29:10.729Z,0
2016-11-23T01:30:10.745Z,0
2016-11-23T01:31:10.470Z,0
2016-11-23T01:32:09.903Z,0
2016-11-23T01:33:10.232Z,0
2016-11-23T01:34:10.557Z,0
2016-11-23T01:35:10.573Z,0
2016-11-23T01:36:10.914Z,0
2016-11-23T01:37:10.339Z,0
2016-11-23T01:38:10.656Z,0
2016-11-23T01:39:10.401Z,0
2016-11-23T01:40:11.030Z,0
2016-11-23T01:41:10.750Z,0
2016-11-23T01:42:10.171Z,0
2016-11-23T01:43:10.804Z,0
2016-11-23T01:44:10.828Z,0
2016-11-23T01:45:10.561Z,0
2016-11-23T01:46:10.578Z,0
2016-11-23T01:47:10.611Z,0
2016-11-23T01:48:11.235Z,0
2016-11-23T01:49:10.369Z,0
2016-11-23T01:50:10.390Z,0
2016-11-23T01:51:11.049Z,0
2016-11-23T01:52:11.369Z,0
2016-11-23T01:53:10.785Z,0
2016-11-23T01:54:10.499Z,0
2016-11-23T01:55:10.837Z,0
2016-11-23T01:56:10.868Z,0
2016-11-23T01:57:11.214Z,0
2016-11-23T01:58:10.925Z,0
2016-11-23T01:59:10.950Z,0
2016-11-23T02:00:10.980Z,0
2016-11-23T02:01:11.317Z,0
2016-11-23T02:02:11.337Z,0
2016-11-23T02:03:11.666Z,0
2016-11-23T02:04:11.682Z,0
2016-11-23T02:05:11.115Z,0
2016-11-23T02:06:11.139Z,0
2016-11-23T02:07:11.480Z,0
2016-11-23T02:08:11.507Z,0
2016-11-23T02:09:10.930Z,0
2016-11-23T02:10:11.254Z,0
2016-11-23T02:11:11.599Z,0
2016-11-23T02:12:11.627Z,0
2016-11-23T02:13:11.334Z,0
2016-11-23T02:14:11.373Z,0
2016-11-23T02:15:11.698Z,0
2016-11-23T02:16:11.727Z,0
2016-11-23T02:17:11.451Z,0
2016-11-23T02:18:26.725Z,0
2016-11-23T02:19:11.821Z,0
2016-11-23T02:20:11.826Z,0
2016-11-23T02:21:11.862Z,0
2016-11-23T02:22:11.604Z,0
2016-11-23T02:23:11.932Z,0
2016-11-23T02:24:12.245Z,0
2016-11-23T02:25:12.280Z,0
2016-11-23T02:26:12.315Z,0
2016-11-23T02:27:12.064Z,0
2016-11-23T02:28:11.761Z,0
2016-11-23T02:29:12.393Z,0
2016-11-23T02:30:12.126Z,0
2016-11-23T02:31:12.454Z,0
2016-11-23T02:32:12.158Z,0
2016-11-23T02:33:12.191Z,0
2016-11-23T02:34:11.916Z,0
2016-11-23T02:35:12.569Z,0
2016-11-23T02:36:11.981Z,0
2016-11-23T02:37:12.605Z,0
2016-11-23T02:38:12.642Z,0
2016-11-23T02:39:12.680Z,0
2016-11-23T02:40:12.696Z,0
2016-11-23T02:41:12.426Z,0
2016-11-23T02:42:12.458Z,0
2016-11-23T02:43:12.775Z,0
2016-11-23T02:44:12.815Z,0
2016-11-23T02:45:12.527Z,0
2016-11-23T02:46:12.569Z,0
2016-11-23T02:47:12.594Z,0
2016-11-23T02:48:12.911Z,0
2016-11-23T02:49:12.630Z,0
2016-11-23T02:50:12.063Z,0
2016-11-23T02:51:12.096Z,0
2016-11-23T02:52:12.717Z,0
2016-11-23T02:53:12.449Z,0
2016-11-23T02:54:13.082Z,0
2016-11-23T02:55:13.111Z,0
2016-11-23T02:56:13.155Z,0
2016-11-23T02:57:12.264Z,0
2016-11-23T02:58:12.894Z,0
2016-11-23T02:59:12.930Z,0
2016-11-23T03:00:13.258Z,0
2016-11-23T03:01:12.980Z,0
2016-11-23T03:02:12.996Z,0
2016-11-23T03:03:12.441Z,0
2016-11-23T03:04:13.052Z,0
2016-11-23T03:05:13.090Z,0
2016-11-23T03:06:12.846Z,0
2016-11-23T03:07:13.166Z,0
2016-11-23T03:08:13.175Z,0
2016-11-23T03:09:13.205Z,0
2016-11-23T03:10:12.930Z,0
2016-11-23T03:11:12.955Z,0
2016-11-23T03:12:12.672Z,0
2016-11-23T03:13:13.647Z,0
2016-11-23T03:14:13.032Z,0
2016-11-23T03:15:13.372Z,0
2016-11-23T03:16:13.398Z,0
2016-11-23T03:17:12.817Z,0
2016-11-23T03:18:13.444Z,0
2016-11-23T03:19:13.184Z,0
2016-11-23T03:20:13.192Z,0
2016-11-23T03:21:13.533Z,0
2016-11-23T03:22:13.266Z,0
2016-11-23T03:23:13.902Z,0
2016-11-23T03:24:13.618Z,0
2016-11-23T03:25:13.344Z,0
2016-11-23T03:26:13.984Z,0
2016-11-23T03:27:13.697Z,0
2016-11-23T03:28:14.030Z,0
2016-11-23T03:29:13.451Z,0
2016-11-23T03:30:14.107Z,0
2016-11-23T03:31:13.817Z,0
2016-11-23T03:32:13.537Z,0
2016-11-23T03:33:13.865Z,0
2016-11-23T03:34:13.598Z,0
2016-11-23T03:35:13.919Z,0
2016-11-23T03:36:13.947Z,0
2016-11-23T03:37:13.992Z,0
2016-11-23T03:38:14.312Z,0
2016-11-23T03:39:13.737Z,0
2016-11-23T03:40:14.059Z,0
2016-11-23T03:41:14.399Z,0
2016-11-23T03:42:14.120Z,0
2016-11-23T03:43:14.441Z,0
2016-11-23T03:44:14.175Z,0
2016-11-23T03:45:14.201Z,0
2016-11-23T03:46:14.555Z,0
2016-11-23T03:47:14.284Z,0
2016-11-23T03:48:14.581Z,0
2016-11-23T03:49:14.004Z,0
2016-11-23T03:50:14.653Z,0
2016-11-23T03:51:14.671Z,0
2016-11-23T03:52:14.395Z,0
2016-11-23T03:53:14.423Z,0
2016-11-23T03:54:14.456Z,0
2016-11-23T03:55:14.797Z,0
2016-11-23T03:56:14.192Z,0
2016-11-23T03:57:14.530Z,0
2016-11-23T03:58:14.558Z,0
2016-11-23T03:59:13.983Z,0
2016-11-23T04:00:14.624Z,0
2016-11-23T04:01:14.641Z,0
2016-11-23T04:02:14.062Z,0
2016-11-23T04:03:27.435Z,0
2016-11-23T04:04:14.727Z,0
2016-11-23T04:05:15.052Z,0
2016-11-23T04:06:15.073Z,0
2016-11-23T04:07:15.109Z,0
2016-11-23T04:08:15.149Z,0
2016-11-23T04:09:14.862Z,0
2016-11-23T04:10:14.875Z,0
2016-11-23T04:11:14.608Z,0
2016-11-23T04:12:14.641Z,0
2016-11-23T04:13:14.977Z,0
2016-11-23T04:14:14.690Z,0
2016-11-23T04:15:15.335Z,0
2016-11-23T04:16:15.067Z,0
2016-11-23T04:17:15.101Z,0
2016-11-23T04:18:14.804Z,0
2016-11-23T04:19:15.145Z,0
2016-11-23T04:20:14.871Z,0
2016-11-23T04:21:15.199Z,0
2016-11-23T04:22:15.245Z,0
2016-11-23T04:23:14.649Z,0
2016-11-23T04:24:15.269Z,0
2016-11-23T04:25:15.617Z,0
2016-11-23T04:26:15.335Z,0
2016-11-23T04:27:15.063Z,0
2016-11-23T04:28:15.093Z,0
2016-11-23T04:29:14.809Z,0
2016-11-23T04:30:15.122Z,0
2016-11-23T04:31:15.166Z,0
2016-11-23T04:32:15.186Z,0
2016-11-23T04:33:14.924Z,0
2016-11-23T04:34:15.248Z,0
2016-11-23T04:35:15.577Z,0
2016-11-23T04:36:15.621Z,0
2016-11-23T04:37:15.643Z,0
2016-11-23T04:38:15.659Z,0
2016-11-23T04:39:15.424Z,0
2016-11-23T04:40:15.722Z,0
2016-11-23T04:41:16.051Z,0
2016-11-23T04:42:15.474Z,0
2016-11-23T04:43:15.491Z,0
2016-11-23T04:44:15.836Z,0
2016-11-23T04:45:15.555Z,0
2016-11-23T04:46:15.885Z,0
2016-11-23T04:47:16.213Z,0
2016-11-23T04:48:15.939Z,0
2016-11-23T04:49:15.962Z,0
2016-11-23T04:50:15.995Z,0
2016-11-23T04:51:15.721Z,0
2016-11-23T04:52:16.057Z,0
2016-11-23T04:53:16.078Z,0
2016-11-23T04:54:16.111Z,0
2016-11-23T04:55:15.885Z,0
2016-11-23T04:56:15.561Z,0
2016-11-23T04:57:15.887Z,0
2016-11-23T04:58:15.922Z,0
2016-11-23T04:59:15.946Z,0
2016-11-23T05:00:16.270Z,0
2016-11-23T05:01:16.296Z,0
2016-11-23T05:02:16.321Z,0
2016-11-23T05:03:16.653Z,0
2016-11-23T05:04:16.075Z,0
2016-11-23T05:05:16.716Z,0
2016-11-23T05:06:16.136Z,0
2016-11-23T05:07:16.165Z,0
2016-11-23T05:08:16.493Z,0
2016-11-23T05:09:16.226Z,0
2016-11-23T05:10:16.843Z,0
2016-11-23T05:11:16.875Z,0
2016-11-23T05:12:16.004Z,0
2016-11-23T05:13:16.962Z,0
2016-11-23T05:14:16.665Z,0
2016-11-23T05:15:16.686Z,0
2016-11-23T05:16:16.422Z,0
2016-11-23T05:17:16.441Z,0
2016-11-23T05:18:16.801Z,0
2016-11-23T05:19:16.810Z,0
2016-11-23T05:20:17.128Z,0
2016-11-23T05:21:16.553Z,0
2016-11-23T05:22:16.566Z,0
2016-11-23T05:23:16.900Z,0
2016-11-23T05:24:16.944Z,0
2016-11-23T05:25:16.349Z,0
2016-11-23T05:26:17.298Z,0
2016-11-23T05:27:16.715Z,0
2016-11-23T05:28:16.731Z,0
2016-11-23T05:29:16.469Z,0
2016-11-23T05:30:17.413Z,0
2016-11-23T05:31:17.426Z,0
2016-11-23T05:32:16.858Z,0
2016-11-23T05:33:16.880Z,0
2016-11-23T05:34:16.913Z,0
2016-11-23T05:35:17.238Z,0
2016-11-23T05:36:17.561Z,0
2016-11-23T05:37:16.988Z,0
2016-11-23T05:38:17.030Z,0
2016-11-23T05:39:17.344Z,0
2016-11-23T05:40:17.681Z,0
2016-11-23T05:41:17.732Z,0
2016-11-23T05:42:17.437Z,0
2016-11-23T05:43:17.158Z,0
2016-11-23T05:44:17.175Z,0
2016-11-23T05:45:17.503Z,0
2016-11-23T05:46:17.239Z,0
2016-11-23T05:47:17.557Z,0
2016-11-23T05:48:17.589Z,0
2016-11-23T05:49:17.938Z,0
2016-11-23T05:50:17.647Z,0
2016-11-23T05:51:17.680Z,0
2016-11-23T05:52:17.728Z,0
2016-11-23T05:53:18.040Z,0
2016-11-23T05:54:17.770Z,0
2016-11-23T05:55:17.794Z,0
2016-11-23T05:56:17.850Z,0
2016-11-23T05:57:17.243Z,0
2016-11-23T05:58:17.888Z,0
2016-11-23T05:59:17.896Z,0
2016-11-23T06:00:17.653Z,0
2016-11-23T06:01:18.251Z,0
2016-11-23T06:02:18.286Z,0
2016-11-23T06:03:18.012Z,0
2016-11-23T06:04:18.336Z,0
2016-11-23T06:05:18.057Z,0
2016-11-23T06:06:17.818Z,0
2016-11-23T06:07:18.437Z,0
2016-11-23T06:08:17.851Z,0
2016-11-23T06:09:18.475Z,0
2016-11-23T06:10:17.899Z,0
2016-11-23T06:11:17.925Z,0
2016-11-23T06:12:18.573Z,0
2016-11-23T06:13:17.991Z,0
2016-11-23T06:14:18.306Z,0
2016-11-23T06:15:18.352Z,0
2016-11-23T06:16:18.369Z,0
2016-11-23T06:17:18.409Z,0
2016-11-23T06:18:18.432Z,0
2016-11-23T06:19:18.761Z,0
2016-11-23T06:20:18.478Z,0
2016-11-23T06:21:18.815Z,0
2016-11-23T06:22:18.855Z,0
2016-11-23T06:23:18.859Z,0
2016-11-23T06:24:18.592Z,0
2016-11-23T06:25:18.329Z,0
2016-11-23T06:26:18.661Z,0
2016-11-23T06:27:18.682Z,0
2016-11-23T06:28:18.723Z,0
2016-11-23T06:29:18.432Z,0
2016-11-23T06:30:19.069Z,0
2016-11-23T06:31:18.805Z,0
2016-11-23T06:32:18.505Z,4
2016-11-23T06:33:18.842Z,4
2016-11-23T06:34:19.171Z,4
2016-11-23T06:35:18.596Z,0
2016-11-23T06:36:18.928Z,4
2016-11-23T06:37:18.662Z,4
2016-11-23T06:38:18.982Z,8
2016-11-23T06:39:19.383Z,8
2016-11-23T06:40:19.031Z,8
2016-11-23T06:41:19.068Z,8
2016-11-23T06:42:19.096Z,12
2016-11-23T06:43:18.525Z,12
2016-11-23T06:44:18.855Z,16
2016-11-23T06:45:19.479Z,16
2016-11-23T06:46:19.213Z,20
2016-11-23T06:47:18.936Z,24
2016-11-23T06:48:19.578Z,24
2016-11-23T06:49:19.582Z,24
2016-11-23T06:50:19.023Z,28
2016-11-23T06:51:19.383Z,32
2016-11-23T06:52:19.697Z,36
2016-11-23T06:53:19.721Z,40
2016-11-23T06:54:19.134Z,40
2016-11-23T06:55:19.467Z,44
2016-11-23T06:56:19.811Z,48
2016-11-23T06:57:19.515Z,56
2016-11-23T06:58:19.250Z,56
2016-11-23T06:59:19.274Z,64
2016-11-23T07:00:19.906Z,72
2016-11-23T07:01:19.643Z,80
2016-11-23T07:02:19.056Z,92
2016-11-23T07:03:19.396Z,104
2016-11-23T07:04:19.718Z,116
2016-11-23T07:05:19.747Z,132
2016-11-23T07:06:19.770Z,144
2016-11-23T07:07:19.795Z,152
2016-11-23T07:08:19.832Z,164
2016-11-23T07:09:20.161Z,172
2016-11-23T07:10:19.886Z,180
2016-11-23T07:11:19.907Z,192
2016-11-23T07:12:19.939Z,196
2016-11-23T07:13:19.992Z,204
2016-11-23T07:14:19.993Z,212
2016-11-23T07:15:20.021Z,216
2016-11-23T07:16:20.054Z,228
2016-11-23T07:17:20.386Z,236
2016-11-23T07:18:20.407Z,244
2016-11-23T07:19:19.536Z,252
2016-11-23T07:20:20.200Z,264
2016-11-23T07:21:20.501Z,276
2016-11-23T07:22:20.225Z,284
2016-11-23T07:23:19.955Z,296
2016-11-23T07:24:20.284Z,308
2016-11-23T07:25:20.619Z,316
2016-11-23T07:26:20.353Z,332
2016-11-23T07:27:20.670Z,340
2016-11-23T07:28:20.402Z,344
2016-11-23T07:29:20.726Z,356
2016-11-23T07:30:20.155Z,368
2016-11-23T07:31:20.172Z,384
2016-11-23T07:32:20.204Z,400
2016-11-23T07:33:20.544Z,412
2016-11-23T07:34:20.257Z,420
2016-11-23T07:35:20.002Z,428
2016-11-23T07:36:20.607Z,452
2016-11-23T07:37:20.336Z,472
2016-11-23T07:38:20.681Z,488
2016-11-23T07:39:20.701Z,508
2016-11-23T07:40:20.429Z,528
2016-11-23T07:41:20.471Z,536
2016-11-23T07:42:20.795Z,564
2016-11-23T07:43:20.209Z,596
2016-11-23T07:44:20.548Z,624
2016-11-23T07:45:21.185Z,656
2016-11-23T07:46:20.934Z,680
2016-11-23T07:47:20.934Z,700
2016-11-23T07:48:20.959Z,716
2016-11-23T07:49:20.987Z,740
2016-11-23T07:50:21.342Z,744
2016-11-23T07:51:21.066Z,744
2016-11-23T07:52:20.794Z,744
2016-11-23T07:53:21.406Z,644
2016-11-23T07:54:21.127Z,640
2016-11-23T07:55:21.468Z,640
2016-11-23T07:56:21.169Z,640
2016-11-23T07:57:21.533Z,656
2016-11-23T07:58:20.946Z,684
2016-11-23T07:59:21.266Z,728
2016-11-23T08:00:21.311Z,740
2016-11-23T08:01:21.703Z,744
2016-11-23T08:02:20.745Z,736
2016-11-23T08:03:21.073Z,732
2016-11-23T08:04:21.112Z,720
2016-11-23T08:05:21.747Z,720
2016-11-23T08:06:21.477Z,724
2016-11-23T08:07:21.487Z,744
2016-11-23T08:08:21.513Z,764
2016-11-23T08:09:21.550Z,768
2016-11-23T08:10:21.586Z,744
2016-11-23T08:11:21.298Z,732
2016-11-23T08:12:21.919Z,736
2016-11-23T08:13:21.964Z,748
2016-11-23T08:14:36.306Z,784
2016-11-23T08:15:21.717Z,808
2016-11-23T08:16:21.130Z,844
2016-11-23T08:17:21.463Z,860
2016-11-23T08:18:21.792Z,900
2016-11-23T08:19:21.218Z,928
2016-11-23T08:20:21.847Z,960
2016-11-23T08:21:21.887Z,1000
2016-11-23T08:22:21.954Z,1028
2016-11-23T08:23:22.258Z,1016
2016-11-23T08:24:22.262Z,1036
2016-11-23T08:25:21.701Z,1068
2016-11-23T08:26:22.021Z,1096
2016-11-23T08:27:22.049Z,1252
2016-11-23T08:28:21.766Z,1088
2016-11-23T08:29:21.799Z,1016
2016-11-23T08:30:21.828Z,1000
2016-11-23T08:31:21.853Z,972
2016-11-23T08:32:21.582Z,968
2016-11-23T08:33:21.920Z,984
2016-11-23T08:34:21.935Z,1020
2016-11-23T08:35:21.665Z,1052
2016-11-23T08:36:22.298Z,1196
2016-11-23T08:37:22.015Z,1480
2016-11-23T08:38:22.051Z,1268
2016-11-23T08:39:22.388Z,1328
2016-11-23T08:40:22.108Z,1360
2016-11-23T08:41:22.461Z,1524
2016-11-23T08:42:22.466Z,1156
2016-11-23T08:43:22.802Z,1672
2016-11-23T08:44:22.219Z,1604
2016-11-23T08:45:22.849Z,1456
2016-11-23T08:46:22.609Z,1540
2016-11-23T08:47:22.902Z,1248
2016-11-23T08:48:22.331Z,1240
2016-11-23T08:49:22.967Z,1260
2016-11-23T08:50:22.680Z,1296
2016-11-23T08:51:22.725Z,1304
2016-11-23T08:52:22.138Z,1904
2016-11-23T08:53:22.783Z,1924
2016-11-23T08:54:23.102Z,1560
2016-11-23T08:55:22.524Z,1484
2016-11-23T08:56:22.549Z,1776
2016-11-23T08:57:22.581Z,1952
2016-11-23T08:58:22.619Z,1716
2016-11-23T08:59:22.637Z,1636
2016-11-23T09:00:22.977Z,1872
2016-11-23T09:01:22.992Z,1892
2016-11-23T09:02:23.325Z,2000
2016-11-23T09:03:23.057Z,1780
2016-11-23T09:04:23.378Z,1852
2016-11-23T09:05:23.099Z,2044
2016-11-23T09:06:23.136Z,1980
2016-11-23T09:07:23.173Z,1864
2016-11-23T09:08:23.495Z,1680
2016-11-23T09:09:22.918Z,1280
2016-11-23T09:10:22.957Z,1372
2016-11-23T09:11:23.564Z,1552
2016-11-23T09:12:23.306Z,1172
2016-11-23T09:13:23.330Z,1068
2016-11-23T09:14:23.371Z,1056
2016-11-23T09:15:23.691Z,1076
2016-11-23T09:16:23.720Z,1128
2016-11-23T09:17:23.761Z,1236
2016-11-23T09:18:23.177Z,1316
2016-11-23T09:19:22.926Z,1372
2016-11-23T09:20:23.826Z,1420
2016-11-23T09:21:23.568Z,1400
2016-11-23T09:22:23.624Z,1388
2016-11-23T09:23:23.009Z,1388
2016-11-23T09:24:23.941Z,1384
2016-11-23T09:25:23.987Z,1400
2016-11-23T09:26:23.420Z,1412
2016-11-23T09:27:24.031Z,1428
2016-11-23T09:28:24.064Z,1432
2016-11-23T09:29:23.777Z,1348
2016-11-23T09:30:23.814Z,1292
2016-11-23T09:31:23.536Z,1280
2016-11-23T09:32:23.569Z,1284
2016-11-23T09:33:24.204Z,1300
2016-11-23T09:34:24.221Z,1348
2016-11-23T09:35:23.650Z,1396
2016-11-23T09:36:24.287Z,1424
2016-11-23T09:37:24.002Z,1428
2016-11-23T09:38:24.057Z,1440
2016-11-23T09:39:24.069Z,1444
2016-11-23T09:40:24.101Z,1444
2016-11-23T09:41:24.127Z,1428
2016-11-23T09:42:24.148Z,1432
2016-11-23T09:43:23.574Z,1428
2016-11-23T09:44:24.202Z,1416
2016-11-23T09:45:24.238Z,1460
2016-11-23T09:46:23.956Z,1568
2016-11-23T09:47:23.680Z,1676
2016-11-23T09:48:24.339Z,1756
2016-11-23T09:49:24.658Z,1836
2016-11-23T09:50:24.381Z,1948
2016-11-23T09:51:24.395Z,2088
2016-11-23T09:52:24.720Z,2232
2016-11-23T09:53:24.761Z,2696
2016-11-23T09:54:24.177Z,2652
2016-11-23T09:55:24.830Z,2592
2016-11-23T09:56:24.536Z,2584
2016-11-23T09:57:24.875Z,2648
2016-11-23T09:58:24.901Z,2852
2016-11-23T09:59:24.929Z,2668
2016-11-23T10:00:24.950Z,2652
2016-11-23T10:01:24.383Z,2556
2016-11-23T10:02:24.399Z,2472
2016-11-23T10:03:24.436Z,2516
2016-11-23T10:04:24.500Z,2556
2016-11-23T10:05:24.798Z,2528
2016-11-23T10:06:25.118Z,2428
2016-11-23T10:07:25.135Z,2304
2016-11-23T10:08:24.880Z,2144
2016-11-23T10:09:24.925Z,1996
2016-11-23T10:10:24.638Z,1912
2016-11-23T10:11:24.657Z,1924
2016-11-23T10:12:24.999Z,2024
2016-11-23T10:13:25.327Z,2200
2016-11-23T10:14:24.744Z,2324
2016-11-23T10:15:24.778Z,2480
2016-11-23T10:16:25.115Z,2564
2016-11-23T10:17:24.864Z,2548
2016-11-23T10:18:24.851Z,2448
2016-11-23T10:19:25.185Z,2356
2016-11-23T10:20:24.922Z,2304
2016-11-23T10:21:25.258Z,2276
2016-11-23T10:22:25.570Z,2256
2016-11-23T10:23:24.708Z,2232
2016-11-23T10:24:25.049Z,2148
2016-11-23T10:25:24.749Z,2076
2016-11-23T10:26:25.398Z,2012
2016-11-23T10:27:25.722Z,2004
2016-11-23T10:28:25.764Z,1944
2016-11-23T10:29:25.776Z,1888
2016-11-23T10:30:24.893Z,1868
2016-11-23T10:31:25.538Z,1920
2016-11-23T10:32:25.578Z,2008
2016-11-23T10:33:25.283Z,2092
2016-11-23T10:34:25.616Z,2180
2016-11-23T10:35:25.645Z,2292
2016-11-23T10:36:25.979Z,2368
2016-11-23T10:37:25.398Z,2428
2016-11-23T10:38:26.027Z,2456
2016-11-23T10:39:25.460Z,2588
2016-11-23T10:40:26.097Z,2708
2016-11-23T10:41:25.809Z,2752
2016-11-23T10:42:25.542Z,2880
2016-11-23T10:43:25.883Z,3096
2016-11-23T10:44:26.213Z,3476
2016-11-23T10:45:25.613Z,3856
2016-11-23T10:46:25.958Z,4040
2016-11-23T10:47:25.987Z,4080
2016-11-23T10:48:26.040Z,3960
2016-11-23T10:49:26.044Z,3912
2016-11-23T10:50:26.068Z,3896
2016-11-23T10:51:26.413Z,3744
2016-11-23T10:52:26.131Z,3600
2016-11-23T10:53:26.151Z,3376
2016-11-23T10:54:26.487Z,3344
2016-11-23T10:55:25.920Z,3048
2016-11-23T10:56:25.637Z,3000
2016-11-23T10:57:26.262Z,3284
2016-11-23T10:58:26.286Z,2512
2016-11-23T10:59:26.331Z,2280
2016-11-23T11:00:26.356Z,2132
2016-11-23T11:01:26.681Z,2040
2016-11-23T11:02:25.839Z,2060
2016-11-23T11:03:26.445Z,1916
2016-11-23T11:04:26.462Z,1824
2016-11-23T11:05:26.504Z,1740
2016-11-23T11:06:26.824Z,1636
2016-11-23T11:07:26.857Z,1520
2016-11-23T11:08:26.587Z,1428
2016-11-23T11:09:26.295Z,1392
2016-11-23T11:10:26.635Z,1404
2016-11-23T11:11:26.672Z,1452
2016-11-23T11:12:27.022Z,1584
2016-11-23T11:13:26.118Z,1920
2016-11-23T11:14:27.075Z,1720
2016-11-23T11:15:26.783Z,1800
2016-11-23T11:16:26.816Z,1908
2016-11-23T11:17:27.165Z,2012
2016-11-23T11:18:26.897Z,2068
2016-11-23T11:19:26.898Z,2096
2016-11-23T11:20:26.913Z,2156
2016-11-23T11:21:26.969Z,2204
2016-11-23T11:22:26.713Z,2268
2016-11-23T11:23:26.758Z,2348
2016-11-23T11:24:27.026Z,2364
2016-11-23T11:25:27.099Z,2348
2016-11-23T11:26:27.095Z,2368
2016-11-23T11:27:27.428Z,2448
2016-11-23T11:28:27.167Z,3032
2016-11-23T11:29:26.882Z,3368
2016-11-23T11:30:26.911Z,3384
2016-11-23T11:31:27.548Z,2744
2016-11-23T11:32:27.576Z,2748
2016-11-23T11:33:27.308Z,2620
2016-11-23T11:34:27.625Z,2932
2016-11-23T11:35:27.347Z,3040
2016-11-23T11:36:27.076Z,2664
2016-11-23T11:37:27.708Z,2868
2016-11-23T11:38:27.144Z,2300
2016-11-23T11:39:27.485Z,2204
2016-11-23T11:40:27.498Z,2368
2016-11-23T11:41:26.912Z,2104
2016-11-23T11:42:27.544Z,1976
2016-11-23T11:43:27.280Z,1916
2016-11-23T11:44:27.298Z,2152
2016-11-23T11:45:27.662Z,2428
2016-11-23T11:46:27.357Z,2620
2016-11-23T11:47:28.019Z,2704
2016-11-23T11:48:27.736Z,2776
2016-11-23T11:49:27.144Z,2804
2016-11-23T11:50:27.481Z,2848
2016-11-23T11:51:27.494Z,2888
2016-11-23T11:52:27.839Z,2960
2016-11-23T11:53:28.162Z,2984
2016-11-23T11:54:27.593Z,2964
2016-11-23T11:55:28.225Z,2876
2016-11-23T11:56:28.255Z,2844
2016-11-23T11:57:28.297Z,2832
2016-11-23T11:58:27.704Z,2780
2016-11-23T11:59:27.440Z,2768
2016-11-23T12:00:28.401Z,2732
2016-11-23T12:01:28.101Z,2624
2016-11-23T12:02:28.418Z,2468
2016-11-23T12:03:28.461Z,2312
2016-11-23T12:04:28.174Z,2156
2016-11-23T12:05:28.544Z,1960
2016-11-23T12:06:28.243Z,1780
2016-11-23T12:07:27.965Z,1612
2016-11-23T12:08:28.291Z,1448
2016-11-23T12:09:28.311Z,1308
2016-11-23T12:10:28.656Z,1192
2016-11-23T12:11:28.077Z,1104
2016-11-23T12:12:27.810Z,1028
2016-11-23T12:13:28.739Z,1020
2016-11-23T12:14:28.471Z,1016
2016-11-23T12:15:28.192Z,1036
2016-11-23T12:16:28.213Z,1064
2016-11-23T12:17:28.853Z,1108
2016-11-23T12:18:28.581Z,1168
2016-11-23T12:19:28.915Z,1264
2016-11-23T12:20:28.332Z,1408
2016-11-23T12:21:28.656Z,1556
2016-11-23T12:22:28.697Z,1680
2016-11-23T12:23:28.721Z,1792
2016-11-23T12:24:28.754Z,1900
2016-11-23T12:25:28.784Z,2000
2016-11-23T12:26:29.111Z,2092
2016-11-23T12:27:28.532Z,2160
2016-11-23T12:28:28.253Z,2180
2016-11-23T12:29:28.898Z,2224
2016-11-23T12:30:28.619Z,2244
2016-11-23T12:31:28.662Z,2260
2016-11-23T12:32:28.977Z,2280
2016-11-23T12:33:29.013Z,2284
2016-11-23T12:34:28.745Z,2236
2016-11-23T12:35:28.773Z,2176
2016-11-23T12:36:29.087Z,2144
2016-11-23T12:37:29.420Z,2144
2016-11-23T12:38:29.453Z,2072
2016-11-23T12:39:29.181Z,1944
2016-11-23T12:40:29.199Z,1828
2016-11-23T12:41:29.230Z,1760
2016-11-23T12:42:29.255Z,1712
2016-11-23T12:43:29.604Z,1684
2016-11-23T12:44:29.316Z,1684
2016-11-23T12:45:29.366Z,1692
2016-11-23T12:46:29.686Z,1708
2016-11-23T12:47:28.812Z,1716
2016-11-23T12:48:29.437Z,1732
2016-11-23T12:49:29.453Z,1744
2016-11-23T12:50:29.505Z,1736
2016-11-23T12:51:29.210Z,1704
2016-11-23T12:52:29.251Z,1664
2016-11-23T12:53:29.292Z,1624
2016-11-23T12:54:29.300Z,1592
2016-11-23T12:55:29.637Z,1556
2016-11-23T12:56:29.681Z,1520
2016-11-23T12:57:29.686Z,1436
2016-11-23T12:58:29.735Z,1328
2016-11-23T12:59:30.039Z,1224
2016-11-23T13:00:29.501Z,1156
2016-11-23T13:01:29.492Z,1108
2016-11-23T13:02:29.842Z,1092
2016-11-23T13:03:30.171Z,1096
2016-11-23T13:04:29.886Z,1120
2016-11-23T13:05:29.932Z,1160
2016-11-23T13:06:30.253Z,1196
2016-11-23T13:07:29.978Z,1212
2016-11-23T13:08:30.315Z,1216
2016-11-23T13:09:29.743Z,1236
2016-11-23T13:10:30.064Z,1280
2016-11-23T13:11:30.096Z,1308
2016-11-23T13:12:30.129Z,1324
2016-11-23T13:13:30.162Z,1328
2016-11-23T13:14:29.870Z,1332
2016-11-23T13:15:30.507Z,1352
2016-11-23T13:16:30.240Z,1384
2016-11-23T13:17:30.280Z,1444
2016-11-23T13:18:30.600Z,1508
2016-11-23T13:19:30.317Z,1544
2016-11-23T13:20:30.048Z,1548
2016-11-23T13:21:30.679Z,1528
2016-11-23T13:22:30.715Z,1476
2016-11-23T13:23:30.440Z,1412
2016-11-23T13:24:30.453Z,1368
2016-11-23T13:25:30.789Z,1340
2016-11-23T13:26:30.515Z,1340
2016-11-23T13:27:30.551Z,1352
2016-11-23T13:28:30.276Z,1376
2016-11-23T13:29:29.992Z,1396
2016-11-23T13:30:30.942Z,1424
2016-11-23T13:31:30.662Z,1480
2016-11-23T13:32:30.391Z,1528
2016-11-23T13:33:31.027Z,1576
2016-11-23T13:34:30.751Z,1608
2016-11-23T13:35:31.081Z,1612
2016-11-23T13:36:31.113Z,1628
2016-11-23T13:37:30.822Z,1624
2016-11-23T13:38:30.563Z,1612
2016-11-23T13:39:30.591Z,1620
2016-11-23T13:40:30.921Z,1652
2016-11-23T13:41:31.245Z,1700
2016-11-23T13:42:31.278Z,1764
2016-11-23T13:43:31.306Z,1812
2016-11-23T13:44:30.731Z,1828
2016-11-23T13:45:31.076Z,1828
2016-11-23T13:46:31.396Z,1824
2016-11-23T13:47:31.122Z,1824
2016-11-23T13:48:30.836Z,1816
2016-11-23T13:49:30.868Z,1820
2016-11-23T13:50:31.503Z,1800
2016-11-23T13:51:30.621Z,1756
2016-11-23T13:52:31.257Z,1696
2016-11-23T13:53:31.292Z,1664
2016-11-23T13:54:30.707Z,1596
2016-11-23T13:55:31.047Z,1520
2016-11-23T13:56:31.379Z,1464
2016-11-23T13:57:31.103Z,1408
2016-11-23T13:58:31.109Z,1356
2016-11-23T13:59:30.845Z,1316
2016-11-23T14:00:31.790Z,1320
2016-11-23T14:01:31.524Z,1364
2016-11-23T14:02:31.541Z,1400